Time;durP1;ratioP1;P1;durP2;ratioP2;P2;SDS_P1;SDS_P2;PMS_P1;PMS_P2;Temp;Humidity;BMP_temperature;BMP_pressure;BME280_temperature;BME280_humidity;BME280_pressure;Samples;Min_cycle;Max_cycle;Signal;HPM_P1;HPM_P2
2023/08/30 00:01:08;;;;;;;8.80;7.25;;;13.30;99.90;;;;;;5000690;28;20526;-32
2023/08/30 00:03:33;;;;;;;7.28;6.45;;;13.20;99.90;;;;;;4999645;28;20034;-33
2023/08/30 00:06:04;;;;;;;8.38;6.22;;;13.20;99.90;;;;;;4999542;28;20083;-33
2023/08/30 00:08:30;;;;;;;7.78;6.30;;;13.30;99.90;;;;;;5002687;28;20018;-32
2023/08/30 00:10:58;;;;;;;7.25;6.55;;;13.30;99.90;;;;;;5003858;28;20563;-35
2023/08/30 00:13:25;;;;;;;7.53;6.22;;;13.30;99.90;;;;;;5003813;28;20023;-36
2023/08/30 00:15:51;;;;;;;7.80;6.40;;;13.30;99.90;;;;;;5004375;28;20148;-33
2023/08/30 00:18:20;;;;;;;7.93;6.63;;;13.30;99.90;;;;;;5005848;28;20136;-33
2023/08/30 00:20:46;;;;;;;6.80;6.13;;;13.30;99.90;;;;;;4997684;28;20065;-33
2023/08/30 00:23:14;;;;;;;10.77;7.05;;;13.30;99.90;;;;;;5003703;28;20064;-31
2023/08/30 00:25:40;;;;;;;9.95;6.40;;;13.30;99.90;;;;;;4999199;28;20034;-33
2023/08/30 00:28:06;;;;;;;8.18;6.00;;;13.30;99.90;;;;;;4996389;28;20041;-34
2023/08/30 00:30:33;;;;;;;7.30;6.05;;;13.20;99.90;;;;;;5018439;28;20030;-33
2023/08/30 00:32:58;;;;;;;7.78;6.53;;;13.20;99.90;;;;;;4997344;28;20399;-31
2023/08/30 00:35:25;;;;;;;8.68;6.60;;;13.30;99.90;;;;;;5004321;28;20022;-32
2023/08/30 00:37:51;;;;;;;8.48;6.63;;;13.30;99.90;;;;;;5000872;28;20042;-34
2023/08/30 00:40:17;;;;;;;10.00;6.82;;;13.30;99.90;;;;;;4999060;28;20026;-31
2023/08/30 00:42:43;;;;;;;6.68;5.97;;;13.30;99.90;;;;;;4996357;28;20029;-33
2023/08/30 00:45:09;;;;;;;8.05;6.93;;;13.20;99.90;;;;;;5001988;28;20033;-35
2023/08/30 00:47:36;;;;;;;8.52;6.50;;;13.20;99.90;;;;;;4999119;28;20025;-37
2023/08/30 00:50:02;;;;;;;8.40;6.65;;;13.20;99.90;;;;;;4996361;28;20026;-37
2023/08/30 00:52:28;;;;;;;9.45;7.15;;;13.20;99.90;;;;;;4997914;28;20127;-37
2023/08/30 00:54:54;;;;;;;7.72;6.65;;;13.20;99.90;;;;;;5001539;28;20061;-30
2023/08/30 00:57:21;;;;;;;10.80;7.10;;;13.20;99.90;;;;;;4996745;28;20037;-30
2023/08/30 00:59:49;;;;;;;8.15;6.20;;;13.20;99.90;;;;;;5000812;28;20068;-33
2023/08/30 01:02:15;;;;;;;9.88;7.15;;;13.20;99.90;;;;;;4998685;28;20533;-33
2023/08/30 01:04:40;;;;;;;9.25;6.93;;;13.20;99.90;;;;;;4996756;28;20026;-36
2023/08/30 01:07:06;;;;;;;9.00;6.82;;;13.20;99.90;;;;;;4999030;28;20088;-32
2023/08/30 01:09:31;;;;;;;7.53;6.72;;;13.20;99.90;;;;;;4998384;28;20053;-33
2023/08/30 01:12:10;;;;;;;10.85;7.72;;;13.20;99.90;;;;;;4997839;28;20056;-32
2023/08/30 01:15:20;;;;;;;9.07;7.32;;;13.10;99.90;;;;;;4999523;28;20034;-35
2023/08/30 01:17:48;;;;;;;9.18;6.95;;;13.10;99.90;;;;;;4986804;28;20512;-34
2023/08/30 01:20:18;;;;;;;10.02;7.00;;;13.10;99.90;;;;;;5004085;28;20049;-34
2023/08/30 01:22:59;;;;;;;8.45;6.47;;;13.00;99.90;;;;;;4999180;28;20034;-33
2023/08/30 01:25:34;;;;;;;9.52;7.43;;;13.00;99.90;;;;;;4996294;28;20022;-32
2023/08/30 01:28:07;;;;;;;9.07;7.22;;;13.00;99.90;;;;;;5000274;28;20049;-36
2023/08/30 01:30:37;;;;;;;9.82;7.43;;;13.00;99.90;;;;;;4998312;28;20025;-32
2023/08/30 01:33:04;;;;;;;12.30;6.57;;;13.00;99.90;;;;;;5003201;28;20026;-34
2023/08/30 01:35:32;;;;;;;10.40;7.53;;;13.00;99.90;;;;;;5002731;28;20022;-35
2023/08/30 01:38:03;;;;;;;9.00;7.22;;;13.10;99.90;;;;;;4996254;28;20065;-34
2023/08/30 01:40:33;;;;;;;7.47;6.43;;;13.00;99.90;;;;;;5000545;28;20026;-35
2023/08/30 01:43:00;;;;;;;8.57;6.95;;;13.00;99.90;;;;;;4995675;28;20034;-37
2023/08/30 01:45:27;;;;;;;8.57;6.80;;;13.00;99.90;;;;;;4999246;28;20495;-35
2023/08/30 01:47:54;;;;;;;8.15;6.65;;;13.00;99.90;;;;;;5000158;28;20041;-33
2023/08/30 01:50:20;;;;;;;9.57;7.10;;;13.00;99.90;;;;;;5000621;28;20431;-33
2023/08/30 01:52:47;;;;;;;9.15;7.10;;;13.00;99.90;;;;;;5001214;28;20022;-34
2023/08/30 01:55:14;;;;;;;6.78;5.68;;;13.10;99.90;;;;;;4999441;28;20040;-34
2023/08/30 01:57:40;;;;;;;9.48;7.63;;;13.10;99.90;;;;;;4996220;28;20076;-33
2023/08/30 02:00:06;;;;;;;8.02;6.45;;;13.10;99.90;;;;;;5000150;28;20026;-33
2023/08/30 02:02:33;;;;;;;10.25;6.53;;;13.10;99.90;;;;;;5000458;28;20076;-35
2023/08/30 02:04:58;;;;;;;8.73;6.38;;;13.10;99.90;;;;;;4998150;28;20022;-37
2023/08/30 02:07:56;;;;;;;9.32;7.43;;;13.00;99.90;;;;;;4998577;28;20029;-33
2023/08/30 02:10:33;;;;;;;7.68;6.55;;;13.10;99.90;;;;;;4993685;28;20034;-36
2023/08/30 02:13:00;;;;;;;9.73;7.15;;;13.00;99.90;;;;;;4999847;28;20029;-35
2023/08/30 02:15:27;;;;;;;8.77;7.15;;;13.00;99.90;;;;;;5004653;28;20026;-32
2023/08/30 02:17:53;;;;;;;10.07;7.50;;;13.00;99.90;;;;;;4997925;28;20061;-34
2023/08/30 02:20:19;;;;;;;9.02;6.80;;;13.00;99.90;;;;;;4999965;28;20033;-34
2023/08/30 02:22:45;;;;;;;9.93;7.32;;;13.00;99.90;;;;;;4998248;28;20430;-33
2023/08/30 02:25:10;;;;;;;7.75;6.72;;;13.00;99.90;;;;;;4995726;28;20121;-32
2023/08/30 02:27:36;;;;;;;9.77;7.53;;;13.00;99.90;;;;;;4999054;28;20108;-33
2023/08/30 02:30:03;;;;;;;9.60;7.25;;;13.00;99.90;;;;;;4997171;28;20050;-35
2023/08/30 02:32:28;;;;;;;10.20;7.10;;;13.00;99.90;;;;;;4997615;28;20034;-32
2023/08/30 02:34:55;;;;;;;8.02;6.93;;;13.10;99.90;;;;;;4997315;28;20026;-34
2023/08/30 02:37:21;;;;;;;9.57;7.53;;;13.10;99.90;;;;;;4998415;28;20054;-35
2023/08/30 02:39:47;;;;;;;8.95;6.78;;;13.10;99.90;;;;;;4999000;28;20041;-36
2023/08/30 02:42:12;;;;;;;9.18;7.55;;;13.10;99.90;;;;;;4998826;28;20403;-36
2023/08/30 02:44:38;;;;;;;9.18;7.22;;;13.10;99.90;;;;;;4996118;28;20036;-33
2023/08/30 02:47:04;;;;;;;8.40;6.80;;;13.10;99.90;;;;;;4995392;28;20121;-36
2023/08/30 02:49:29;;;;;;;9.45;7.40;;;13.00;99.90;;;;;;5001284;28;20467;-33
2023/08/30 02:51:55;;;;;;;8.55;6.95;;;13.00;99.90;;;;;;4996631;28;20034;-33
2023/08/30 02:54:22;;;;;;;10.07;7.57;;;13.10;99.90;;;;;;4996189;28;20026;-33
2023/08/30 02:56:48;;;;;;;9.35;7.35;;;13.00;99.90;;;;;;5003155;28;20084;-34
2023/08/30 02:59:14;;;;;;;9.80;7.65;;;12.90;99.90;;;;;;5000350;28;20036;-34
2023/08/30 03:01:40;;;;;;;8.90;7.43;;;12.90;99.90;;;;;;4996020;28;20500;-37
2023/08/30 03:04:06;;;;;;;8.82;6.88;;;13.00;99.90;;;;;;4995257;28;20030;-32
2023/08/30 03:06:33;;;;;;;8.60;6.82;;;13.00;99.90;;;;;;4997849;28;20034;-36
2023/08/30 03:08:59;;;;;;;9.52;6.85;;;13.00;99.90;;;;;;4995468;28;20034;-35
2023/08/30 03:11:25;;;;;;;8.38;6.80;;;13.00;99.90;;;;;;4998175;28;20030;-33
2023/08/30 03:13:53;;;;;;;8.50;6.93;;;13.00;99.90;;;;;;4999980;28;20022;-38
2023/08/30 03:16:19;;;;;;;9.65;6.40;;;13.00;99.90;;;;;;5001481;28;20029;-39
2023/08/30 03:18:44;;;;;;;9.88;7.68;;;13.00;99.90;;;;;;5002838;28;20038;-38
2023/08/30 03:21:11;;;;;;;8.48;6.57;;;13.00;99.90;;;;;;5005036;28;20062;-39
2023/08/30 03:23:37;;;;;;;12.10;7.35;;;13.00;99.90;;;;;;4998020;28;20041;-35
2023/08/30 03:26:15;;;;;;;11.45;7.28;;;13.00;99.90;;;;;;5000866;28;20053;-35
2023/08/30 03:28:41;;;;;;;10.50;7.90;;;13.00;99.90;;;;;;5002064;28;20537;-36
2023/08/30 03:31:14;;;;;;;9.48;6.75;;;13.00;99.90;;;;;;5003449;28;20092;-37
2023/08/30 03:33:41;;;;;;;9.07;6.70;;;12.90;99.90;;;;;;5000739;28;20042;-34
2023/08/30 03:36:09;;;;;;;8.70;6.68;;;12.90;99.90;;;;;;5004429;28;20095;-34
2023/08/30 03:38:34;;;;;;;8.80;7.00;;;12.90;99.90;;;;;;4996961;28;20392;-33
2023/08/30 03:41:00;;;;;;;9.18;6.80;;;12.80;99.90;;;;;;5005167;28;20030;-33
2023/08/30 03:43:26;;;;;;;10.38;7.30;;;12.90;99.90;;;;;;5001446;28;20111;-35
2023/08/30 03:45:52;;;;;;;7.95;6.68;;;12.90;99.90;;;;;;5002143;28;20034;-34
2023/08/30 03:48:18;;;;;;;10.77;7.60;;;12.80;99.90;;;;;;5001416;28;20345;-33
2023/08/30 03:50:43;;;;;;;9.25;6.88;;;12.80;99.90;;;;;;5000501;28;20026;-32
2023/08/30 03:53:09;;;;;;;8.82;6.90;;;12.90;99.90;;;;;;5002078;28;20657;-35
2023/08/30 03:55:34;;;;;;;9.82;6.90;;;12.90;99.90;;;;;;5002167;28;20049;-34
2023/08/30 03:58:00;;;;;;;8.43;6.63;;;12.90;99.90;;;;;;5002566;28;20518;-32
2023/08/30 04:00:25;;;;;;;9.57;6.97;;;12.90;99.90;;;;;;4997598;28;20029;-35
2023/08/30 04:02:51;;;;;;;9.50;7.07;;;12.80;99.90;;;;;;5000073;28;20575;-35
2023/08/30 04:05:17;;;;;;;10.23;7.63;;;12.80;99.90;;;;;;5000117;28;20060;-35
2023/08/30 04:07:42;;;;;;;10.70;7.15;;;12.80;99.90;;;;;;5001936;28;20037;-34
2023/08/30 04:10:08;;;;;;;9.52;6.97;;;12.80;99.90;;;;;;5000456;28;20460;-33
2023/08/30 04:12:35;;;;;;;9.98;7.38;;;12.80;99.90;;;;;;4999304;28;20268;-34
2023/08/30 04:15:04;;;;;;;10.32;6.75;;;12.80;99.90;;;;;;4996205;28;20033;-33
2023/08/30 04:17:30;;;;;;;10.65;6.93;;;12.80;99.90;;;;;;4991025;28;20038;-34
2023/08/30 04:19:55;;;;;;;8.43;6.72;;;12.80;99.90;;;;;;5002872;28;20030;-34
2023/08/30 04:22:21;;;;;;;9.85;7.75;;;12.80;99.90;;;;;;5004117;28;20038;-32
2023/08/30 04:24:47;;;;;;;10.23;7.00;;;12.70;99.90;;;;;;5003806;28;20030;-31
2023/08/30 04:27:14;;;;;;;10.68;6.80;;;12.80;99.90;;;;;;5000983;28;20121;-31
2023/08/30 04:29:40;;;;;;;11.45;7.72;;;12.70;99.90;;;;;;4997045;28;20084;-37
2023/08/30 04:32:06;;;;;;;9.35;7.20;;;12.80;99.90;;;;;;5000356;28;20491;-33
2023/08/30 04:34:32;;;;;;;10.23;7.03;;;12.70;99.90;;;;;;4998472;28;20121;-34
2023/08/30 04:36:57;;;;;;;9.55;7.07;;;12.70;99.90;;;;;;4995117;28;20137;-34
2023/08/30 04:39:23;;;;;;;8.73;6.85;;;12.70;99.90;;;;;;5001586;28;20044;-37
2023/08/30 04:41:49;;;;;;;9.73;7.28;;;12.70;99.90;;;;;;4992732;28;20040;-35
2023/08/30 04:44:16;;;;;;;9.70;7.05;;;12.70;99.90;;;;;;4999220;28;20093;-33
2023/08/30 04:46:41;;;;;;;9.45;6.97;;;12.70;99.90;;;;;;4994474;28;20109;-37
2023/08/30 04:49:07;;;;;;;10.40;6.90;;;12.70;99.90;;;;;;4997307;28;20112;-33
2023/08/30 04:51:32;;;;;;;10.85;7.32;;;12.70;99.90;;;;;;4997137;28;20028;-34
2023/08/30 04:53:58;;;;;;;9.98;7.18;;;12.60;99.90;;;;;;4998391;28;20026;-34
2023/08/30 04:56:24;;;;;;;10.02;7.70;;;12.60;99.90;;;;;;4990672;28;20148;-32
2023/08/30 04:58:50;;;;;;;12.82;7.75;;;12.60;99.90;;;;;;4999744;28;20677;-35
2023/08/30 05:01:16;;;;;;;11.40;7.90;;;12.60;99.90;;;;;;5001035;28;20038;-32
2023/08/30 05:03:42;;;;;;;12.05;7.43;;;12.60;99.90;;;;;;5000267;28;20032;-35
2023/08/30 05:06:07;;;;;;;11.30;8.32;;;12.60;99.90;;;;;;5002451;28;20713;-34
2023/08/30 05:08:33;;;;;;;9.88;7.20;;;12.60;99.90;;;;;;5000755;28;20083;-32
2023/08/30 05:10:59;;;;;;;11.55;7.60;;;12.60;99.90;;;;;;4997884;28;20035;-32
2023/08/30 05:13:24;;;;;;;10.32;7.85;;;12.60;99.90;;;;;;4999954;28;20045;-35
2023/08/30 05:15:50;;;;;;;10.68;7.57;;;12.60;99.90;;;;;;5005122;28;20026;-33
2023/08/30 05:18:15;;;;;;;11.23;7.60;;;12.60;99.90;;;;;;4999069;28;20041;-37
2023/08/30 05:20:41;;;;;;;11.73;7.65;;;12.60;99.90;;;;;;4999585;28;20030;-38
2023/08/30 05:23:07;;;;;;;11.50;7.63;;;12.60;99.90;;;;;;4996138;28;20046;-33
2023/08/30 05:25:33;;;;;;;11.55;8.02;;;12.60;99.90;;;;;;5001541;28;20030;-35
2023/08/30 05:27:58;;;;;;;11.02;7.53;;;12.70;99.90;;;;;;5001383;28;20052;-35
2023/08/30 05:30:24;;;;;;;11.55;7.60;;;12.70;99.90;;;;;;5001166;28;20391;-34
2023/08/30 05:32:49;;;;;;;13.18;8.25;;;12.70;99.90;;;;;;5001325;28;20037;-33
2023/08/30 05:35:15;;;;;;;11.32;7.63;;;12.70;99.90;;;;;;5001151;28;20033;-34
2023/08/30 05:37:41;;;;;;;12.52;8.40;;;12.80;99.90;;;;;;4996216;28;20659;-40
2023/08/30 05:40:07;;;;;;;11.82;7.88;;;12.70;99.90;;;;;;4995976;28;20062;-34
2023/08/30 05:42:33;;;;;;;11.60;8.02;;;12.70;99.90;;;;;;4998262;28;20026;-32
2023/08/30 05:44:58;;;;;;;12.55;8.25;;;12.70;99.90;;;;;;4995607;28;20034;-34
2023/08/30 05:47:24;;;;;;;13.75;8.70;;;12.80;99.90;;;;;;4995173;28;20044;-35
2023/08/30 05:49:50;;;;;;;11.70;8.98;;;12.70;99.90;;;;;;5001423;28;20387;-33
2023/08/30 05:52:16;;;;;;;12.43;8.20;;;12.70;99.90;;;;;;5000544;28;20018;-33
2023/08/30 05:54:42;;;;;;;12.75;8.23;;;12.80;99.90;;;;;;4996750;28;20543;-36
2023/08/30 05:57:08;;;;;;;12.32;8.45;;;12.80;99.90;;;;;;4998927;28;20029;-33
2023/08/30 05:59:35;;;;;;;13.23;8.18;;;12.80;99.90;;;;;;4997823;28;20384;-32
2023/08/30 06:02:01;;;;;;;13.05;8.35;;;12.80;99.90;;;;;;4999747;28;20038;-33
2023/08/30 06:04:28;;;;;;;11.90;8.38;;;12.80;99.90;;;;;;5000888;28;20491;-31
2023/08/30 06:06:55;;;;;;;13.88;8.98;;;12.80;99.90;;;;;;5003559;28;20033;-30
2023/08/30 06:09:22;;;;;;;13.35;8.07;;;12.90;99.90;;;;;;5000974;28;20021;-32
2023/08/30 06:11:49;;;;;;;12.15;8.95;;;12.90;99.90;;;;;;5002416;28;20521;-33
2023/08/30 06:14:15;;;;;;;13.88;9.02;;;12.90;99.90;;;;;;4998995;28;20032;-32
2023/08/30 06:16:44;;;;;;;10.98;8.35;;;12.90;99.90;;;;;;5001122;28;20121;-33
2023/08/30 06:19:11;;;;;;;11.90;9.00;;;12.90;99.90;;;;;;5001957;28;20076;-30
2023/08/30 06:21:37;;;;;;;16.20;9.75;;;13.00;99.90;;;;;;4996655;28;20033;-31
2023/08/30 06:24:03;;;;;;;14.23;8.77;;;13.00;99.90;;;;;;5002202;28;20411;-35
2023/08/30 06:26:30;;;;;;;11.82;8.68;;;13.00;99.90;;;;;;4999762;28;20041;-33
2023/08/30 06:28:56;;;;;;;12.88;8.55;;;13.00;99.90;;;;;;4997885;28;20538;-34
2023/08/30 06:31:23;;;;;;;12.85;8.68;;;13.10;99.90;;;;;;4997995;28;20488;-33
2023/08/30 06:33:50;;;;;;;13.32;9.02;;;13.10;99.90;;;;;;4997868;28;20049;-33
2023/08/30 06:36:17;;;;;;;12.90;8.98;;;13.10;99.90;;;;;;5001911;28;20041;-34
2023/08/30 06:38:43;;;;;;;14.35;9.32;;;13.20;99.90;;;;;;5001445;28;20459;-32
2023/08/30 06:41:09;;;;;;;12.23;8.55;;;13.30;99.90;;;;;;4996726;28;20060;-31
2023/08/30 06:43:35;;;;;;;13.05;9.38;;;13.30;99.90;;;;;;4996668;28;20575;-37
2023/08/30 06:46:01;;;;;;;13.60;9.23;;;13.30;99.90;;;;;;4993664;28;20034;-37
2023/08/30 06:48:26;;;;;;;11.20;8.63;;;13.30;99.90;;;;;;5000204;28;20030;-40
2023/08/30 06:50:52;;;;;;;12.15;8.30;;;13.40;99.90;;;;;;4998443;28;20038;-40
2023/08/30 06:53:17;;;;;;;12.38;9.15;;;13.40;99.90;;;;;;5003461;28;20029;-38
2023/08/30 06:55:43;;;;;;;11.55;8.52;;;13.50;99.90;;;;;;5003694;28;20022;-38
2023/08/30 06:58:09;;;;;;;14.98;8.80;;;13.50;99.90;;;;;;4998844;28;20037;-37
2023/08/30 07:00:34;;;;;;;13.93;8.90;;;13.60;99.90;;;;;;5001386;28;20068;-38
2023/08/30 07:03:00;;;;;;;12.52;8.57;;;13.60;99.90;;;;;;5002581;28;20034;-38
2023/08/30 07:05:26;;;;;;;13.35;8.45;;;13.70;99.90;;;;;;5002389;28;20037;-39
2023/08/30 07:07:51;;;;;;;14.13;8.70;;;13.70;99.90;;;;;;5003541;28;20036;-38
2023/08/30 07:10:17;;;;;;;12.13;8.00;;;13.80;99.90;;;;;;5002576;28;20057;-40
2023/08/30 07:12:43;;;;;;;11.18;8.15;;;13.80;99.90;;;;;;4997413;28;20030;-38
2023/08/30 07:15:09;;;;;;;13.90;9.77;;;13.80;99.90;;;;;;4998461;28;20034;-37
2023/08/30 07:17:35;;;;;;;14.07;9.00;;;13.80;99.90;;;;;;4998777;28;20037;-39
2023/08/30 07:20:01;;;;;;;14.60;8.57;;;13.90;99.90;;;;;;5001274;28;20033;-36
2023/08/30 07:22:26;;;;;;;12.85;8.73;;;13.90;99.90;;;;;;4997336;28;20030;-39
2023/08/30 07:24:52;;;;;;;13.85;8.93;;;14.00;99.90;;;;;;5001450;28;20046;-39
2023/08/30 07:27:18;;;;;;;12.70;8.70;;;14.10;99.90;;;;;;5002605;28;20450;-37
2023/08/30 07:29:43;;;;;;;12.20;9.00;;;14.20;99.90;;;;;;5003709;28;20105;-36
2023/08/30 07:32:09;;;;;;;11.35;7.88;;;14.20;99.90;;;;;;4999785;28;20034;-35
2023/08/30 07:34:35;;;;;;;10.93;7.50;;;14.30;99.90;;;;;;5001399;28;20033;-38
2023/08/30 07:37:01;;;;;;;12.38;8.82;;;14.50;99.90;;;;;;4999002;28;20057;-39
2023/08/30 07:39:27;;;;;;;10.27;7.63;;;14.80;99.90;;;;;;5003012;28;20037;-40
2023/08/30 07:41:53;;;;;;;11.38;8.40;;;14.90;99.90;;;;;;5000942;28;20449;-37
2023/08/30 07:44:20;;;;;;;10.57;7.72;;;15.00;99.90;;;;;;4997234;28;20034;-37
2023/08/30 07:46:46;;;;;;;11.43;8.05;;;15.10;99.90;;;;;;5002456;28;20511;-38
2023/08/30 07:49:11;;;;;;;10.18;8.02;;;15.10;99.90;;;;;;4999723;28;20112;-34
2023/08/30 07:51:37;;;;;;;9.30;6.95;;;15.20;99.90;;;;;;5001728;28;20091;-39
2023/08/30 07:54:02;;;;;;;10.38;7.70;;;15.20;99.90;;;;;;4999453;28;20034;-38
2023/08/30 07:56:29;;;;;;;8.48;6.90;;;15.20;99.90;;;;;;5000875;28;20057;-38
2023/08/30 07:58:55;;;;;;;9.20;6.70;;;15.30;99.90;;;;;;4999284;28;20092;-40
2023/08/30 08:01:20;;;;;;;9.40;7.15;;;15.40;99.90;;;;;;4995757;28;20034;-39
2023/08/30 08:03:47;;;;;;;8.63;7.03;;;15.60;99.90;;;;;;4998134;28;20437;-34
2023/08/30 08:06:12;;;;;;;10.15;6.70;;;15.70;99.90;;;;;;5002329;28;20558;-33
2023/08/30 08:08:38;;;;;;;10.32;7.15;;;15.80;99.90;;;;;;4998375;28;20030;-31
2023/08/30 08:11:04;;;;;;;8.98;6.60;;;15.90;99.90;;;;;;4997551;28;20037;-32
2023/08/30 08:13:29;;;;;;;8.95;7.22;;;15.90;99.90;;;;;;5001364;28;20462;-33
2023/08/30 08:15:58;;;;;;;10.20;7.50;;;16.00;99.90;;;;;;4997376;28;20033;-36
2023/08/30 08:18:24;;;;;;;11.70;6.85;;;16.00;99.90;;;;;;4998747;28;20058;-33
2023/08/30 08:20:50;;;;;;;7.60;6.20;;;16.00;99.90;;;;;;5000266;28;20116;-33
2023/08/30 08:23:16;;;;;;;8.20;6.53;;;16.10;99.90;;;;;;5001604;28;20029;-36
2023/08/30 08:25:41;;;;;;;8.07;6.88;;;16.10;99.90;;;;;;5001573;28;20040;-33
2023/08/30 08:28:07;;;;;;;9.75;7.13;;;16.30;99.90;;;;;;4997187;28;20034;-32
2023/08/30 08:30:33;;;;;;;8.38;6.13;;;16.40;99.90;;;;;;5003384;28;20060;-33
2023/08/30 08:32:59;;;;;;;7.30;6.10;;;16.60;99.90;;;;;;4999843;28;20057;-34
2023/08/30 08:35:25;;;;;;;9.70;6.75;;;16.70;99.90;;;;;;5001745;28;20018;-35
2023/08/30 08:37:50;;;;;;;8.68;6.47;;;16.80;99.90;;;;;;4995153;28;20165;-33
2023/08/30 08:40:16;;;;;;;8.07;6.35;;;17.00;99.90;;;;;;5001564;28;20022;-33
2023/08/30 08:42:43;;;;;;;8.18;6.07;;;17.30;99.90;;;;;;5002378;28;20034;-33
2023/08/30 08:45:11;;;;;;;8.45;6.63;;;18.00;99.90;;;;;;5001327;28;20026;-34
2023/08/30 08:47:38;;;;;;;6.38;5.63;;;18.30;99.90;;;;;;4998004;28;20100;-34
2023/08/30 08:50:04;;;;;;;6.95;5.80;;;18.60;99.90;;;;;;5000802;28;20404;-35
2023/08/30 08:52:30;;;;;;;7.18;6.30;;;18.70;99.90;;;;;;4997041;28;20033;-33
2023/08/30 08:54:59;;;;;;;7.93;5.88;;;18.70;99.90;;;;;;5000927;28;20037;-32
2023/08/30 08:57:26;;;;;;;6.93;6.00;;;18.50;99.90;;;;;;4997929;28;20034;-34
2023/08/30 08:59:52;;;;;;;7.45;5.65;;;18.20;99.90;;;;;;4999183;28;20034;-34
2023/08/30 09:02:17;;;;;;;6.63;5.90;;;18.20;99.90;;;;;;5000083;28;20511;-33
2023/08/30 09:04:44;;;;;;;7.57;5.57;;;18.10;99.90;;;;;;5001425;28;20446;-33
2023/08/30 09:07:11;;;;;;;5.18;4.65;;;18.10;99.90;;;;;;4999797;28;20036;-31
2023/08/30 09:09:37;;;;;;;6.72;5.50;;;17.90;99.90;;;;;;5002204;28;20032;-33
2023/08/30 09:12:04;;;;;;;7.63;5.95;;;17.70;99.90;;;;;;4995009;28;20026;-31
2023/08/30 09:14:30;;;;;;;6.68;5.10;;;17.60;99.90;;;;;;4994694;28;20022;-38
2023/08/30 09:17:00;;;;;;;5.88;4.97;;;17.70;99.90;;;;;;4998346;28;20057;-36
2023/08/30 09:19:26;;;;;;;5.40;4.85;;;17.80;99.90;;;;;;4999688;28;20856;-39
2023/08/30 09:21:59;;;;;;;5.22;4.72;;;17.70;99.90;;;;;;5000425;28;20802;-37
2023/08/30 09:24:25;;;;;;;5.78;5.05;;;18.10;99.90;;;;;;5003070;28;20117;-36
2023/08/30 09:26:53;;;;;;;6.43;5.40;;;18.40;99.90;;;;;;5001866;28;20026;-37
2023/08/30 09:29:19;;;;;;;;;;;18.40;99.90;;;;;;4993034;28;20031;-39
2023/08/30 09:31:45;;;;;;;4.90;4.03;;;18.10;99.90;;;;;;4998515;28;19920;-37
2023/08/30 09:34:11;;;;;;;5.93;5.32;;;18.30;99.90;;;;;;4996957;28;20037;-38
2023/08/30 09:36:37;;;;;;;6.57;4.90;;;18.50;99.90;;;;;;4996144;28;20050;-37
2023/08/30 09:39:09;;;;;;;4.95;4.45;;;18.30;99.90;;;;;;4995243;28;20038;-37
2023/08/30 09:41:35;;;;;;;6.72;5.72;;;18.20;99.90;;;;;;4999107;28;20472;-38
2023/08/30 09:44:11;;;;;;;5.28;4.50;;;18.20;99.90;;;;;;4998031;28;20034;-35
2023/08/30 09:46:50;;;;;;;5.72;4.40;;;18.50;99.90;;;;;;4999012;28;20121;-37
2023/08/30 09:49:20;;;;;;;7.32;4.40;;;19.00;99.90;;;;;;4999948;28;20034;-39
2023/08/30 09:51:47;;;;;;;5.03;3.85;;;19.30;99.90;;;;;;4996995;28;20029;-39
2023/08/30 09:54:17;;;;;;;4.50;4.10;;;19.20;99.90;;;;;;4995767;28;20030;-35
2023/08/30 09:56:44;;;;;;;5.75;3.83;;;19.20;99.90;;;;;;4999620;28;20527;-36
2023/08/30 09:59:17;;;;;;;10.43;3.88;;;18.80;99.90;;;;;;4999389;28;20483;-37
2023/08/30 10:01:46;;;;;;;5.85;4.40;;;18.70;99.90;;;;;;5000874;28;20038;-38
2023/08/30 10:04:12;;;;;;;5.90;4.72;;;18.70;99.90;;;;;;5000043;28;20470;-37
2023/08/30 10:06:38;;;;;;;3.50;3.20;;;18.70;99.90;;;;;;5002793;28;20041;-38
2023/08/30 10:09:07;;;;;;;4.90;3.58;;;18.70;99.90;;;;;;4999663;28;20109;-38
2023/08/30 10:11:35;;;;;;;3.80;3.47;;;18.90;99.90;;;;;;5000216;28;20033;-37
2023/08/30 10:14:04;;;;;;;4.63;3.33;;;19.30;99.90;;;;;;4998624;28;20027;-36
2023/08/30 10:16:45;;;;;;;3.38;3.08;;;19.40;99.90;;;;;;4997998;28;20036;-30
2023/08/30 10:19:15;;;;;;;2.53;2.33;;;19.50;99.90;;;;;;4999124;28;20030;-31
2023/08/30 10:21:46;;;;;;;3.72;2.63;;;19.60;99.90;;;;;;5004203;28;20125;-30
2023/08/30 10:24:16;;;;;;;3.50;2.80;;;19.80;99.90;;;;;;4997855;28;20045;-37
2023/08/30 10:26:44;;;;;;;3.33;3.03;;;19.90;99.90;;;;;;5001188;28;20025;-37
2023/08/30 10:29:10;;;;;;;;;;;19.90;99.90;;;;;;5004136;28;20058;-40
2023/08/30 10:31:38;;;;;;;3.28;2.95;;;19.80;99.90;;;;;;5006040;28;20358;-39
2023/08/30 10:34:16;;;;;;;4.40;2.67;;;19.70;99.90;;;;;;5000078;28;20431;-39
2023/08/30 10:36:42;;;;;;;2.85;2.20;;;19.60;99.90;;;;;;4998905;28;20046;-37
2023/08/30 10:39:13;;;;;;;2.50;2.30;;;19.30;99.90;;;;;;4999601;28;20030;-38
2023/08/30 10:41:53;;;;;;;1.80;1.70;;;19.20;99.90;;;;;;5000003;28;20029;-39
2023/08/30 10:44:21;;;;;;;2.10;2.00;;;19.20;99.90;;;;;;5000035;28;20538;-36
2023/08/30 10:46:51;;;;;;;;;;;19.30;99.90;;;;;;5001860;28;20041;-37
2023/08/30 10:49:18;;;;;;;2.15;1.90;;;19.30;99.90;;;;;;5001640;28;20270;-35
2023/08/30 10:51:44;;;;;;;2.70;2.10;;;19.30;99.90;;;;;;4999212;28;20092;-36
2023/08/30 10:54:20;;;;;;;2.78;2.05;;;19.20;99.90;;;;;;4998860;28;20293;-39
2023/08/30 10:56:56;;;;;;;2.33;1.60;;;19.30;99.90;;;;;;5002361;28;20030;-36
2023/08/30 10:59:23;;;;;;;2.45;2.10;;;19.30;99.90;;;;;;4999053;28;20109;-36
2023/08/30 11:01:50;;;;;;;2.53;2.33;;;19.40;99.90;;;;;;4997555;28;20026;-34
2023/08/30 11:04:17;;;;;;;2.40;2.00;;;19.10;99.90;;;;;;5002296;28;20030;-39
2023/08/30 11:06:45;;;;;;;3.60;2.58;;;19.10;99.90;;;;;;5003990;28;20034;-37
2023/08/30 11:09:14;;;;;;;7.38;2.83;;;19.00;99.90;;;;;;5000320;28;20022;-37
2023/08/30 11:11:40;;;;;;;2.70;2.50;;;19.20;99.90;;;;;;5002471;28;20593;-37
2023/08/30 11:14:09;;;;;;;2.50;2.30;;;19.50;99.90;;;;;;4993842;28;20022;-38
2023/08/30 11:16:36;;;;;;;2.80;2.58;;;19.60;99.90;;;;;;5000560;28;20518;-38
2023/08/30 11:19:06;;;;;;;2.65;2.22;;;19.40;99.90;;;;;;4993732;28;20424;-39
2023/08/30 11:21:37;;;;;;;3.20;2.33;;;19.50;99.90;;;;;;5003637;28;20029;-38
2023/08/30 11:24:07;;;;;;;2.85;2.65;;;19.40;99.90;;;;;;5003638;28;20030;-38
2023/08/30 11:26:33;;;;;;;2.22;2.08;;;19.30;99.90;;;;;;4999502;28;20022;-39
2023/08/30 11:29:08;;;;;;;2.40;2.20;;;19.30;99.90;;;;;;4997284;28;20044;-39
2023/08/30 11:31:35;;;;;;;2.17;2.00;;;19.40;99.90;;;;;;4996404;28;20073;-38
2023/08/30 11:34:01;;;;;;;2.28;2.13;;;19.20;99.90;;;;;;5002888;28;20665;-37
2023/08/30 11:36:29;;;;;;;2.28;2.08;;;19.20;99.90;;;;;;5000248;28;20585;-37
2023/08/30 11:38:55;;;;;;;;;;;19.30;99.90;;;;;;4998101;28;20407;-36
2023/08/30 11:41:21;;;;;;;1.90;1.70;;;19.10;99.90;;;;;;5001357;28;19913;-40
2023/08/30 11:43:48;;;;;;;2.22;1.52;;;19.10;99.90;;;;;;5000128;28;20080;-37
2023/08/30 11:46:14;;;;;;;1.95;1.73;;;19.40;99.90;;;;;;4999178;28;20034;-34
2023/08/30 11:48:43;;;;;;;2.40;2.20;;;19.40;99.90;;;;;;5001214;28;20556;-41
2023/08/30 11:51:10;;;;;;;2.05;1.92;;;19.70;99.90;;;;;;4997521;28;20205;-37
2023/08/30 11:53:37;;;;;;;1.88;1.77;;;19.60;99.90;;;;;;4999368;28;20014;-40
2023/08/30 11:56:04;;;;;;;1.67;1.58;;;19.70;99.90;;;;;;5002283;28;20100;-38
2023/08/30 11:58:37;;;;;;;2.53;1.73;;;19.60;99.90;;;;;;5001159;28;20029;-41
2023/08/30 12:01:04;;;;;;;3.60;1.98;;;19.70;99.90;;;;;;4999833;28;20038;-37
2023/08/30 12:03:31;;;;;;;2.13;1.85;;;19.70;99.90;;;;;;4993008;28;20698;-38
2023/08/30 12:05:58;;;;;;;1.93;1.70;;;19.90;99.90;;;;;;4997465;28;20045;-38
2023/08/30 12:08:31;;;;;;;1.85;1.75;;;19.80;99.90;;;;;;5002907;28;20033;-37
2023/08/30 12:10:57;;;;;;;2.00;1.50;;;20.10;99.90;;;;;;4999161;28;20030;-37
2023/08/30 12:13:23;;;;;;;1.80;1.70;;;20.10;99.90;;;;;;5000135;28;20016;-37
2023/08/30 12:15:50;;;;;;;3.15;1.92;;;20.30;99.90;;;;;;5000902;28;20017;-37
2023/08/30 12:18:15;;;;;;;2.92;2.10;;;20.10;99.90;;;;;;5001309;28;20022;-37
2023/08/30 12:20:52;;;;;;;2.30;2.10;;;20.00;99.90;;;;;;4994040;28;20030;-36
2023/08/30 12:23:25;;;;;;;3.10;2.20;;;19.80;99.90;;;;;;5019765;28;20065;-38
2023/08/30 12:26:01;;;;;;;2.08;1.90;;;19.70;99.90;;;;;;4997446;28;20603;-38
2023/08/30 12:28:36;;;;;;;2.13;1.80;;;19.80;99.90;;;;;;4998265;28;20025;-38
2023/08/30 12:31:06;;;;;;;2.47;1.95;;;20.10;99.90;;;;;;4996661;28;20383;-39
2023/08/30 12:33:34;;;;;;;1.77;1.67;;;20.50;99.90;;;;;;5001085;28;20026;-41
2023/08/30 12:36:00;;;;;;;1.88;1.77;;;20.60;99.90;;;;;;4999844;28;20069;-34
2023/08/30 12:38:26;;;;;;;1.90;1.80;;;20.80;99.90;;;;;;4993543;28;20041;-39
2023/08/30 12:40:54;;;;;;;2.47;1.83;;;20.50;99.90;;;;;;4997818;28;20038;-40
2023/08/30 12:43:20;;;;;;;1.80;1.70;;;20.50;99.90;;;;;;4997102;28;20518;-39
2023/08/30 12:45:47;;;;;;;1.77;1.50;;;20.70;99.90;;;;;;4998042;28;20037;-38